Time;durP1;ratioP1;P1;durP2;ratioP2;P2;SDS_P1;SDS_P2;PMS_P1;PMS_P2;Temp;Humidity;BMP_temperature;BMP_pressure;BME280_temperature;BME280_humidity;BME280_pressure;Samples;Min_cycle;Max_cycle;Signal;HPM_P1;HPM_P2
2023/06/15 00:01:47;;;;;;;7.45;6.55;;;;;;;13.37;86.79;99900.14;1672512;84;20463;-66
2023/06/15 00:04:14;;;;;;;11.22;6.97;;;;;;;13.34;86.62;99896.39;1709235;82;21009;-66
2023/06/15 00:06:41;;;;;;;10.28;7.35;;;;;;;13.35;86.78;99902.00;1707293;82;21574;-67
2023/06/15 00:09:07;;;;;;;19.15;8.15;;;;;;;13.28;86.77;99902.82;1702089;82;20973;-66
2023/06/15 00:11:34;;;;;;;10.08;7.05;;;;;;;13.32;87.37;99900.86;1698856;82;21008;-66
2023/06/15 00:14:00;;;;;;;7.12;6.40;;;;;;;13.35;87.54;99894.13;1702900;82;21590;-64
2023/06/15 00:16:31;;;;;;;12.03;6.15;;;;;;;13.34;87.64;99891.98;1705997;82;21136;-66
2023/06/15 00:18:55;;;;;;;9.78;7.00;;;;;;;13.32;87.69;99893.00;1706369;82;21536;-66
2023/06/15 00:21:27;;;;;;;8.88;7.00;;;;;;;13.30;87.75;99897.47;1705867;82;20991;-67
2023/06/15 00:23:54;;;;;;;9.73;6.65;;;;;;;13.26;87.94;99897.27;1700262;82;21074;-66
2023/06/15 00:26:20;;;;;;;11.50;7.60;;;;;;;13.25;88.17;99900.34;1702311;82;21588;-67
2023/06/15 00:28:46;;;;;;;9.75;7.75;;;;;;;13.21;88.60;99897.02;1705570;82;21603;-67
2023/06/15 00:31:13;;;;;;;7.25;6.15;;;;;;;13.23;88.68;99889.08;1702345;82;20950;-67
2023/06/15 00:33:39;;;;;;;9.55;7.40;;;;;;;13.27;89.02;99891.09;1702979;82;21040;-68
2023/06/15 00:36:08;;;;;;;7.37;6.57;;;;;;;13.29;89.14;99887.92;1705255;82;21136;-67
2023/06/15 00:38:35;;;;;;;10.30;7.10;;;;;;;13.32;89.27;99893.00;1705129;82;21018;-65
2023/06/15 00:41:01;;;;;;;10.50;6.53;;;;;;;13.39;89.82;99894.36;1696466;84;21012;-63
2023/06/15 00:43:28;;;;;;;7.00;5.10;;;;;;;13.48;89.94;99895.14;1696914;83;21441;-67
2023/06/15 00:45:55;;;;;;;7.33;5.30;;;;;;;13.42;89.48;99902.05;1696067;83;21485;-67
2023/06/15 00:48:22;;;;;;;5.35;4.85;;;;;;;13.21;88.80;99901.42;1697484;83;21037;-67
2023/06/15 00:50:48;;;;;;;7.35;4.95;;;;;;;13.09;89.36;99902.11;1697221;83;21033;-68
2023/06/15 00:53:14;;;;;;;8.08;5.28;;;;;;;13.00;89.45;99895.59;1696842;83;21096;-65
2023/06/15 00:55:43;;;;;;;7.78;5.55;;;;;;;12.90;89.49;99898.33;1696040;84;21256;-68
2023/06/15 00:58:10;;;;;;;6.42;5.70;;;;;;;12.95;90.10;99897.61;1675176;84;21612;-64
2023/06/15 01:00:37;;;;;;;5.37;4.87;;;;;;;13.03;90.51;99897.20;1673016;85;21795;-66
2023/06/15 01:03:04;;;;;;;;;;;;;;;13.06;90.57;99892.63;1678828;85;21109;-66
2023/06/15 01:05:34;;;;;;;6.75;5.17;;;;;;;13.12;91.06;99887.05;1705332;83;20117;-67
2023/06/15 01:08:04;;;;;;;6.20;5.60;;;;;;;13.18;91.03;99884.08;1703771;83;21010;-66
2023/06/15 01:10:31;;;;;;;7.62;5.62;;;;;;;13.24;91.27;99890.77;1703645;84;21057;-67
2023/06/15 01:12:58;;;;;;;9.18;5.78;;;;;;;13.24;91.03;99882.05;1695635;83;21093;-66
2023/06/15 01:15:25;;;;;;;7.72;6.22;;;;;;;13.27;91.16;99887.16;1704115;82;21117;-66
2023/06/15 01:17:53;;;;;;;;;;;;;;;13.26;91.19;99880.23;1706920;82;21010;-67
2023/06/15 01:20:27;;;;;;;11.10;6.83;;;;;;;13.21;90.82;99885.22;1706315;82;20543;-67
2023/06/15 01:23:19;;;;;;;7.58;6.78;;;;;;;13.19;90.53;99879.67;1694158;84;20978;-67
2023/06/15 01:26:00;;;;;;;7.80;6.25;;;;;;;13.18;90.22;99881.46;1674157;84;21098;-67
2023/06/15 01:28:30;;;;;;;15.95;8.08;;;;;;;13.14;90.07;99885.20;1675322;84;21018;-66
2023/06/15 01:30:57;;;;;;;7.37;6.42;;;;;;;13.12;90.18;99887.05;1672888;84;21478;-66
2023/06/15 01:33:25;;;;;;;9.33;6.40;;;;;;;13.13;90.09;99880.02;1672300;84;21089;-64
2023/06/15 01:35:51;;;;;;;7.72;6.70;;;;;;;13.11;90.00;99887.15;1674449;84;21061;-66
2023/06/15 01:38:23;;;;;;;9.20;5.92;;;;;;;13.10;90.19;99888.90;1700711;83;21010;-67
2023/06/15 01:40:52;;;;;;;8.50;6.78;;;;;;;13.06;90.04;99879.52;1707103;82;21048;-67
2023/06/15 01:43:25;;;;;;;7.85;5.40;;;;;;;12.99;89.92;99882.09;1675071;84;21029;-67
2023/06/15 01:45:53;;;;;;;9.28;5.75;;;;;;;12.89;89.79;99884.85;1696667;83;21052;-68
2023/06/15 01:48:20;;;;;;;5.25;4.75;;;;;;;12.83;89.93;99880.78;1744584;80;20992;-68
2023/06/15 01:50:49;;;;;;;5.90;5.17;;;;;;;12.78;90.04;99875.41;1747280;81;21020;-67
2023/06/15 01:53:16;;;;;;;11.78;5.83;;;;;;;12.71;89.85;99879.64;1744355;81;20984;-68
2023/06/15 01:55:42;;;;;;;7.63;5.37;;;;;;;12.67;89.89;99875.52;1740112;82;20998;-67
2023/06/15 01:58:10;;;;;;;7.10;5.40;;;;;;;12.63;90.00;99875.31;1744087;81;20993;-68
2023/06/15 02:00:37;;;;;;;6.65;5.58;;;;;;;12.65;90.23;99881.29;1742238;81;21024;-68
2023/06/15 02:03:04;;;;;;;;;;;;;;;12.65;90.16;99881.29;1747431;82;21040;-66
2023/06/15 02:05:30;;;;;;;6.28;4.65;;;;;;;12.64;90.40;99875.68;1742582;81;20163;-65
2023/06/15 02:07:56;;;;;;;6.15;5.25;;;;;;;12.64;90.38;99876.15;1747276;81;20955;-68
2023/06/15 02:10:23;;;;;;;6.65;5.35;;;;;;;12.64;90.39;99876.98;1742035;81;21006;-66
2023/06/15 02:12:49;;;;;;;8.40;5.22;;;;;;;12.65;90.49;99877.36;1740628;82;21482;-68
2023/06/15 02:15:15;;;;;;;6.35;4.95;;;;;;;12.64;90.35;99880.08;1742882;82;20982;-67
2023/06/15 02:17:42;;;;;;;6.08;4.95;;;;;;;12.62;90.47;99876.22;1748052;82;22430;-69
2023/06/15 02:20:09;;;;;;;6.25;5.00;;;;;;;12.63;90.61;99875.31;1747836;81;21033;-63
2023/06/15 02:22:36;;;;;;;8.40;5.33;;;;;;;12.65;90.61;99869.50;1741108;82;20970;-64
2023/06/15 02:25:04;;;;;;;6.30;4.83;;;;;;;12.64;90.60;99865.20;1742641;81;21036;-68
2023/06/15 02:27:30;;;;;;;6.70;5.37;;;;;;;12.68;90.88;99869.33;1742040;81;20962;-66
2023/06/15 02:29:56;;;;;;;5.75;5.15;;;;;;;12.73;91.02;99868.62;1743761;81;20980;-64
2023/06/15 02:32:34;;;;;;;7.30;5.40;;;;;;;12.80;91.15;99866.98;1745307;81;22151;-66
2023/06/15 02:35:04;;;;;;;9.55;5.58;;;;;;;12.89;91.17;99861.27;1746115;81;21136;-65
2023/06/15 02:37:31;;;;;;;6.37;5.00;;;;;;;12.96;91.24;99862.60;1742267;81;21052;-68
2023/06/15 02:39:58;;;;;;;7.53;5.47;;;;;;;13.03;91.22;99856.11;1747049;81;21081;-68
2023/06/15 02:42:24;;;;;;;7.83;4.92;;;;;;;13.07;91.24;99853.69;1741994;81;21221;-68
2023/06/15 02:44:51;;;;;;;5.60;4.83;;;;;;;13.10;91.07;99865.30;1741866;81;21502;-62
2023/06/15 02:47:17;;;;;;;9.88;6.00;;;;;;;13.12;91.16;99856.06;1748786;82;20915;-63
2023/06/15 02:49:43;;;;;;;9.20;5.07;;;;;;;13.20;91.43;99853.39;1746227;81;21513;-67
2023/06/15 02:52:10;;;;;;;6.58;5.47;;;;;;;13.28;91.38;99857.41;1744100;81;21002;-66
2023/06/15 02:54:36;;;;;;;6.33;5.47;;;;;;;13.32;91.48;99851.88;1740908;81;21069;-68
2023/06/15 02:57:06;;;;;;;6.50;5.05;;;;;;;13.37;91.45;99851.63;1748301;81;20915;-67
2023/06/15 02:59:34;;;;;;;6.53;5.22;;;;;;;13.38;91.27;99858.55;1743137;81;21446;-68
2023/06/15 03:02:02;;;;;;;5.50;4.65;;;;;;;13.36;91.23;99853.85;1730752;82;21499;-66
2023/06/15 03:04:29;;;;;;;7.42;4.97;;;;;;;13.40;91.23;99856.70;1746050;82;20958;-66
2023/06/15 03:06:56;;;;;;;6.50;4.90;;;;;;;13.46;91.51;99852.88;1743139;82;21061;-66
2023/06/15 03:09:22;;;;;;;;;;;;;;;13.46;91.31;99848.47;1743368;81;21006;-68
2023/06/15 03:11:50;;;;;;;7.33;5.05;;;;;;;13.47;91.39;99849.31;1743407;81;20284;-66
2023/06/15 03:14:20;;;;;;;8.25;5.50;;;;;;;13.55;91.66;99851.88;1744974;82;20982;-69
2023/06/15 03:16:47;;;;;;;8.40;5.35;;;;;;;13.61;91.53;99852.86;1745750;80;21503;-67
2023/06/15 03:19:16;;;;;;;7.05;5.30;;;;;;;13.64;91.45;99856.61;1745711;81;20963;-65
2023/06/15 03:21:47;;;;;;;8.98;5.65;;;;;;;13.72;91.54;99853.99;1738924;82;21029;-67
2023/06/15 03:24:13;;;;;;;7.35;4.97;;;;;;;13.77;91.64;99859.82;1744861;81;20978;-66
2023/06/15 03:26:43;;;;;;;;;;;;;;;13.84;91.57;99858.55;1741179;81;21111;-68
2023/06/15 03:29:09;;;;;;;7.15;5.22;;;;;;;13.86;91.39;99861.91;1747120;81;20106;-68
2023/06/15 03:31:40;;;;;;;6.03;5.00;;;;;;;13.88;91.30;99860.04;1742080;81;21564;-68
2023/06/15 03:34:03;;;;;;;8.50;5.20;;;;;;;13.92;91.50;99867.27;1739294;81;21024;-66
2023/06/15 03:36:31;;;;;;;7.43;5.27;;;;;;;14.05;91.91;99871.70;1730746;82;21010;-65
2023/06/15 03:38:59;;;;;;;5.62;4.87;;;;;;;14.14;91.93;99858.96;1731752;82;20972;-66
2023/06/15 03:41:30;;;;;;;5.60;5.00;;;;;;;14.29;92.11;99868.56;1729932;82;21093;-65
2023/06/15 03:43:57;;;;;;;7.72;5.00;;;;;;;14.39;91.87;99870.98;1735123;82;21534;-67
2023/06/15 03:46:23;;;;;;;6.87;5.73;;;;;;;14.41;91.83;99867.81;1730616;82;21045;-65
2023/06/15 03:48:49;;;;;;;6.05;5.45;;;;;;;14.49;91.55;99864.25;1733310;82;21014;-66
2023/06/15 03:51:16;;;;;;;5.87;5.20;;;;;;;14.57;91.93;99865.61;1734054;82;20971;-68
2023/06/15 03:53:43;;;;;;;7.08;5.50;;;;;;;14.63;91.58;99865.22;1732495;82;20975;-68
2023/06/15 03:56:10;;;;;;;8.38;4.87;;;;;;;14.63;91.49;99866.53;1711725;82;20955;-67
2023/06/15 03:58:36;;;;;;;9.70;6.00;;;;;;;14.62;91.26;99868.77;1731248;82;21006;-67
2023/06/15 04:01:06;;;;;;;7.08;5.42;;;;;;;14.58;91.22;99873.38;1732946;82;21450;-68
2023/06/15 04:03:36;;;;;;;6.15;5.08;;;;;;;14.61;91.56;99869.24;1734334;82;21552;-68
2023/06/15 04:06:04;;;;;;;5.87;5.28;;;;;;;14.66;91.47;99870.28;1680160;84;21030;-68
2023/06/15 04:08:39;;;;;;;7.90;5.20;;;;;;;14.69;91.48;99864.84;1732491;82;21435;-67
2023/06/15 04:11:04;;;;;;;5.25;4.75;;;;;;;14.74;91.55;99870.19;1730200;82;20959;-67
2023/06/15 04:13:30;;;;;;;6.67;4.90;;;;;;;14.77;91.54;99863.89;1731324;82;20931;-66
2023/06/15 04:15:56;;;;;;;6.37;4.87;;;;;;;14.81;91.63;99869.31;1682769;84;21577;-64
2023/06/15 04:18:24;;;;;;;6.70;4.75;;;;;;;14.85;91.61;99872.14;1733840;82;20975;-68
2023/06/15 04:20:51;;;;;;;6.05;4.87;;;;;;;14.93;91.88;99865.94;1734360;82;21061;-67
2023/06/15 04:23:18;;;;;;;5.83;4.78;;;;;;;15.00;91.72;99860.65;1735239;82;21053;-68
2023/06/15 04:25:45;;;;;;;5.17;4.67;;;;;;;15.06;91.77;99859.89;1734795;82;21054;-66
2023/06/15 04:28:11;;;;;;;5.58;4.45;;;;;;;15.13;91.75;99867.78;1682645;84;21020;-67
2023/06/15 04:30:44;;;;;;;8.37;4.83;;;;;;;15.19;91.79;99871.33;1730263;82;21037;-66
2023/06/15 04:33:16;;;;;;;7.60;4.40;;;;;;;15.29;91.77;99877.70;1733560;82;21075;-66
2023/06/15 04:35:46;;;;;;;8.08;4.85;;;;;;;15.24;91.12;99873.67;1731913;81;21525;-67
2023/06/15 04:38:14;;;;;;;4.83;4.35;;;;;;;15.24;91.35;99869.25;1745264;81;21010;-66
2023/06/15 04:40:46;;;;;;;8.28;4.90;;;;;;;15.31;91.51;99878.42;1744685;81;21021;-64
2023/06/15 04:43:11;;;;;;;6.20;4.78;;;;;;;15.37;91.57;99873.23;1744264;81;21026;-67
2023/06/15 04:45:38;;;;;;;8.70;4.42;;;;;;;15.46;91.76;99868.71;1750649;80;21053;-63
2023/06/15 04:48:05;;;;;;;12.13;5.10;;;;;;;15.42;91.32;99873.31;1746387;81;20973;-66
2023/06/15 04:50:32;;;;;;;;;;;;;;;15.54;91.93;99862.92;1747093;81;21041;-62
2023/06/15 04:52:59;;;;;;;6.85;4.47;;;;;;;15.69;91.77;99861.96;1747537;82;20494;-66
2023/06/15 04:55:25;;;;;;;4.58;3.87;;;;;;;15.76;91.46;99859.75;1744870;82;21056;-65
2023/06/15 04:57:51;;;;;;;6.30;4.60;;;;;;;15.81;91.55;99857.19;1747772;81;20966;-65
2023/06/15 05:00:19;;;;;;;5.30;4.80;;;;;;;15.86;91.25;99851.14;1745827;81;21120;-67
2023/06/15 05:02:46;;;;;;;7.25;4.58;;;;;;;15.86;91.27;99855.09;1743775;81;20947;-67
2023/06/15 05:05:12;;;;;;;5.97;4.40;;;;;;;15.88;91.27;99854.53;1746202;81;20947;-64
2023/06/15 05:07:41;;;;;;;9.33;4.80;;;;;;;15.89;91.06;99849.62;1746811;81;20970;-65
2023/06/15 05:10:08;;;;;;;6.42;4.58;;;;;;;15.90;91.12;99858.36;1676508;84;21541;-68
2023/06/15 05:12:34;;;;;;;6.17;4.25;;;;;;;15.94;91.49;99845.38;1677597;84;20942;-68
2023/06/15 05:15:01;;;;;;;5.37;3.90;;;;;;;16.04;91.36;99842.94;1678351;84;21034;-66
2023/06/15 05:17:31;;;;;;;5.45;4.30;;;;;;;16.04;91.36;99842.94;1675931;84;21533;-67
2023/06/15 05:19:57;;;;;;;5.05;4.03;;;;;;;16.16;91.49;99847.39;1673973;84;21049;-68
2023/06/15 05:22:24;;;;;;;7.08;3.47;;;;;;;16.27;91.25;99840.91;1688219;83;21044;-68
2023/06/15 05:24:50;;;;;;;4.55;3.40;;;;;;;16.36;91.05;99839.43;1688417;84;21584;-66
2023/06/15 05:27:16;;;;;;;6.12;3.77;;;;;;;16.39;90.78;99843.17;1685057;84;20969;-68
2023/06/15 05:29:43;;;;;;;6.03;3.37;;;;;;;16.41;90.89;99850.95;1687606;83;21111;-67
2023/06/15 05:32:13;;;;;;;4.78;3.33;;;;;;;16.49;90.87;99852.09;1685919;85;20981;-67
2023/06/15 05:34:40;;;;;;;6.08;2.98;;;;;;;16.61;91.07;99855.70;1684767;83;21029;-63
2023/06/15 05:37:06;;;;;;;6.42;3.83;;;;;;;16.76;90.98;99855.95;1682474;84;21026;-69
2023/06/15 05:39:36;;;;;;;5.97;3.17;;;;;;;16.94;90.55;99867.45;1734080;82;21497;-65
2023/06/15 05:42:03;;;;;;;10.60;3.83;;;;;;;17.03;90.42;99856.27;1730103;82;20987;-67
2023/06/15 05:44:29;;;;;;;4.08;3.50;;;;;;;17.27;90.93;99855.43;1732199;82;20994;-68
2023/06/15 05:46:55;;;;;;;7.10;4.95;;;;;;;17.57;90.78;99847.90;1681254;84;21102;-68
2023/06/15 05:49:22;;;;;;;8.28;5.28;;;;;;;17.84;90.53;99854.73;1729330;82;21094;-64
2023/06/15 05:51:48;;;;;;;8.13;5.60;;;;;;;18.08;90.50;99860.80;1730169;82;21537;-67
2023/06/15 05:54:14;;;;;;;9.40;5.12;;;;;;;18.33;90.23;99861.56;1728652;82;20946;-72
2023/06/15 05:56:41;;;;;;;7.97;4.70;;;;;;;18.47;89.75;99864.46;1684856;84;20948;-64
2023/06/15 05:59:08;;;;;;;5.75;4.03;;;;;;;18.53;89.10;99863.49;1732135;82;21050;-63
2023/06/15 06:01:34;;;;;;;5.67;3.98;;;;;;;18.54;88.55;99859.91;1730790;82;21010;-67
2023/06/15 06:04:01;;;;;;;8.13;4.28;;;;;;;18.53;88.93;99851.59;1729003;82;21750;-64
2023/06/15 06:06:28;;;;;;;7.87;3.95;;;;;;;18.38;88.06;99848.84;1733807;82;20997;-64
2023/06/15 06:08:54;;;;;;;25.32;6.85;;;;;;;18.17;87.94;99830.67;1728053;82;21538;-64
2023/06/15 06:11:23;;;;;;;9.10;3.92;;;;;;;17.97;87.98;99835.67;1730695;82;21018;-64
2023/06/15 06:14:01;;;;;;;6.42;4.00;;;;;;;17.88;88.21;99841.67;1727541;82;21131;-66
2023/06/15 06:16:32;;;;;;;5.83;3.75;;;;;;;17.82;88.26;99840.81;1719936;82;21478;-65
2023/06/15 06:19:08;;;;;;;8.78;4.08;;;;;;;17.73;88.15;99844.97;1728232;82;21042;-66
2023/06/15 06:21:32;;;;;;;5.92;4.05;;;;;;;17.73;88.26;99855.98;1730246;82;21054;-64
2023/06/15 06:23:59;;;;;;;7.65;4.17;;;;;;;17.51;86.99;99862.88;1724970;82;21043;-65
2023/06/15 06:26:25;;;;;;;6.33;4.60;;;;;;;17.29;87.06;99878.60;1730923;82;21018;-65
2023/06/15 06:28:52;;;;;;;6.05;4.55;;;;;;;17.16;87.24;99888.70;1728727;82;20988;-65
2023/06/15 06:31:19;;;;;;;;;;;;;;;17.12;87.44;99895.17;1734118;82;20991;-64
2023/06/15 06:33:46;;;;;;;6.87;4.47;;;;;;;16.64;86.34;99892.39;1734859;82;20112;-65
2023/06/15 06:36:12;;;;;;;6.58;4.78;;;;;;;16.64;86.34;99892.39;1726466;82;21471;-65
2023/06/15 06:38:42;;;;;;;8.63;4.80;;;;;;;16.54;86.66;99915.05;1734374;81;21046;-67
2023/06/15 06:41:09;;;;;;;8.48;5.53;;;;;;;16.36;86.56;99925.55;1703307;82;20993;-65
2023/06/15 06:43:36;;;;;;;;;;;;;;;16.17;86.60;99930.73;1744322;81;20974;-65
2023/06/15 06:46:05;;;;;;;6.53;5.08;;;;;;;16.02;86.47;99929.11;1741357;82;20460;-65
2023/06/15 06:48:31;;;;;;;6.28;5.00;;;;;;;15.81;86.42;99924.80;1739625;81;21104;-65
2023/06/15 06:50:57;;;;;;;10.20;5.75;;;;;;;15.60;86.33;99933.13;1742346;82;21002;-65
2023/06/15 06:53:26;;;;;;;7.90;5.37;;;;;;;15.42;86.47;99933.83;1678544;84;20990;-65
2023/06/15 06:55:52;;;;;;;6.17;4.80;;;;;;;15.31;89.21;99931.03;1667633;84;21019;-65
2023/06/15 06:58:19;;;;;;;8.17;5.13;;;;;;;14.94;89.80;99916.73;1745496;82;21595;-67
2023/06/15 07:00:50;;;;;;;6.92;5.45;;;;;;;14.59;90.19;99903.13;1743280;82;21683;-66
2023/06/15 07:03:14;;;;;;;8.38;5.15;;;;;;;14.39;91.02;99888.06;1745520;81;21096;-66
2023/06/15 07:05:41;;;;;;;7.08;5.15;;;;;;;14.28;91.43;99886.55;1741936;81;21033;-67
2023/06/15 07:08:07;;;;;;;11.18;5.87;;;;;;;14.18;91.22;99895.94;1746804;81;20995;-67
2023/06/15 07:10:36;;;;;;;9.55;5.17;;;;;;;14.12;91.79;99891.05;1739940;81;21018;-66
2023/06/15 07:13:04;;;;;;;12.73;5.80;;;;;;;14.15;92.24;99893.49;1721253;82;21013;-66
2023/06/15 07:15:31;;;;;;;8.75;5.15;;;;;;;14.14;92.46;99890.47;1670434;84;20998;-67
2023/06/15 07:17:58;;;;;;;6.47;5.25;;;;;;;14.23;92.57;99886.01;1729519;81;21024;-67
2023/06/15 07:20:25;;;;;;;;;;;;;;;14.32;92.87;99872.31;1744959;81;21097;-67
2023/06/15 07:22:51;;;;;;;9.70;5.20;;;;;;;14.43;93.37;99856.75;1744435;81;20403;-67
2023/06/15 07:25:17;;;;;;;10.15;5.47;;;;;;;14.62;93.63;99845.98;1705024;82;21029;-66
2023/06/15 07:27:44;;;;;;;10.43;5.40;;;;;;;14.86;94.19;99837.50;1700468;84;21139;-67
2023/06/15 07:30:13;;;;;;;7.50;5.12;;;;;;;15.11;94.59;99841.56;1706851;82;21060;-67
2023/06/15 07:32:39;;;;;;;8.08;5.37;;;;;;;15.45;94.90;99840.21;1704966;82;21069;-67
2023/06/15 07:35:07;;;;;;;11.43;4.58;;;;;;;15.80;95.37;99846.30;1703354;82;21001;-66
2023/06/15 07:37:33;;;;;;;12.20;4.70;;;;;;;16.01;94.31;99847.11;1680415;84;21129;-66
2023/06/15 07:40:00;;;;;;;7.05;4.40;;;;;;;16.13;93.15;99833.09;1693186;84;21023;-66
2023/06/15 07:42:26;;;;;;;6.12;4.15;;;;;;;16.01;91.84;99829.98;1743124;82;21092;-66
2023/06/15 07:44:53;;;;;;;5.65;4.58;;;;;;;15.79;91.26;99831.42;1747013;81;20986;-67
2023/06/15 07:47:20;;;;;;;7.87;4.53;;;;;;;15.67;91.53;99833.55;1675233;84;21108;-66
2023/06/15 07:49:46;;;;;;;8.05;4.20;;;;;;;15.67;92.02;99837.49;1673737;84;21100;-67
2023/06/15 07:52:13;;;;;;;5.17;3.85;;;;;;;15.66;92.09;99835.81;1672321;85;21548;-66
2023/06/15 07:54:40;;;;;;;5.12;3.65;;;;;;;15.71;92.36;99836.39;1676217;84;21029;-66
2023/06/15 07:57:07;;;;;;;5.28;4.35;;;;;;;15.81;93.05;99828.70;1675523;84;21105;-67
2023/06/15 07:59:34;;;;;;;5.12;3.87;;;;;;;15.99;93.11;99830.56;1673499;85;20986;-67
2023/06/15 08:02:06;;;;;;;;;;;;;;;16.24;93.49;99833.20;1675185;84;20982;-67
2023/06/15 08:04:35;;;;;;;8.45;4.33;;;;;;;16.61;94.12;99835.92;1690763;82;20468;-66
2023/06/15 08:07:01;;;;;;;5.97;3.90;;;;;;;16.91;93.46;99839.50;1671457;85;21061;-67
2023/06/15 08:09:28;;;;;;;5.43;3.90;;;;;;;17.11;93.19;99855.24;1676896;84;21124;-67
2023/06/15 08:11:54;;;;;;;5.65;4.08;;;;;;;17.06;92.34;99865.76;1669777;84;21159;-66
2023/06/15 08:14:20;;;;;;;4.85;3.77;;;;;;;17.00;92.23;99868.36;1674002;85;21037;-66
2023/06/15 08:16:48;;;;;;;7.10;3.87;;;;;;;17.03;92.49;99868.59;1670794;84;21001;-66
2023/06/15 08:19:15;;;;;;;10.40;4.03;;;;;;;17.08;92.29;99871.74;1672331;84;21253;-67
2023/06/15 08:21:43;;;;;;;8.40;4.28;;;;;;;17.10;92.03;99870.69;1655898;84;22652;-67
2023/06/15 08:24:10;;;;;;;5.55;4.25;;;;;;;17.10;92.12;99866.73;1671326;84;21049;-66
2023/06/15 08:26:36;;;;;;;5.53;4.10;;;;;;;17.27;93.04;99865.98;1676778;84;20994;-66
2023/06/15 08:29:04;;;;;;;8.98;3.87;;;;;;;17.92;96.02;99856.80;1673058;84;21171;-67
2023/06/15 08:31:31;;;;;;;10.05;3.77;;;;;;;18.80;95.53;99854.39;1670771;84;21041;-67
2023/06/15 08:33:58;;;;;;;5.20;3.75;;;;;;;19.38;93.87;99847.05;1673417;84;21020;-68
2023/06/15 08:36:24;;;;;;;4.47;3.98;;;;;;;19.74;92.33;99839.69;1676532;84;21058;-66
2023/06/15 08:38:51;;;;;;;4.60;3.70;;;;;;;19.83;91.18;99838.10;1666991;84;21694;-67
2023/06/15 08:41:19;;;;;;;5.72;3.40;;;;;;;19.83;90.46;99838.10;1660600;84;21082;-67
2023/06/15 08:43:49;;;;;;;7.47;3.75;;;;;;;19.75;90.00;99833.44;1666852;84;21555;-66
2023/06/15 08:46:17;;;;;;;5.22;3.50;;;;;;;19.81;90.37;99831.59;1688950;83;21492;-67
2023/06/15 08:48:46;;;;;;;5.67;3.08;;;;;;;20.07;90.83;99832.52;1695636;83;21080;-66
2023/06/15 08:51:12;;;;;;;4.28;2.95;;;;;;;20.48;91.29;99830.78;1687000;83;21650;-66
2023/06/15 08:53:42;;;;;;;5.17;2.90;;;;;;;20.72;90.12;99831.30;1688786;83;21694;-66
2023/06/15 08:56:13;;;;;;;3.92;2.62;;;;;;;21.00;89.94;99829.73;1691928;83;21021;-66
2023/06/15 08:58:41;;;;;;;3.95;2.75;;;;;;;21.24;89.08;99816.05;1690061;83;21036;-65
2023/06/15 09:01:08;;;;;;;4.80;2.77;;;;;;;21.13;87.52;99822.81;1697630;83;21691;-67
2023/06/15 09:03:36;;;;;;;3.05;2.30;;;;;;;21.01;87.93;99822.59;1689613;83;21030;-66
2023/06/15 09:06:04;;;;;;;4.75;3.05;;;;;;;20.93;87.91;99823.27;1671677;84;21033;-66
2023/06/15 09:08:31;;;;;;;6.45;2.87;;;;;;;20.97;87.89;99819.35;1671781;84;20992;-67
2023/06/15 09:11:08;;;;;;;3.98;2.75;;;;;;;21.16;89.06;99821.20;1689919;83;21084;-66
2023/06/15 09:13:36;;;;;;;4.95;2.85;;;;;;;21.54;88.55;99822.25;1691812;83;21013;-66
2023/06/15 09:16:05;;;;;;;7.83;3.02;;;;;;;22.12;90.58;99818.64;1691059;83;21032;-67
2023/06/15 09:18:43;;;;;;;3.83;2.33;;;;;;;23.72;91.32;99814.67;1718846;82;21077;-67
2023/06/15 09:21:13;;;;;;;3.98;2.80;;;;;;;24.58;86.43;99816.56;1717463;82;20994;-67
2023/06/15 09:23:45;;;;;;;4.62;2.90;;;;;;;24.92;84.95;99819.69;1718936;82;21041;-66
2023/06/15 09:26:24;;;;;;;5.55;2.80;;;;;;;24.95;83.88;99818.02;1719436;83;21424;-66
2023/06/15 09:28:56;;;;;;;4.53;2.77;;;;;;;24.87;83.13;99824.67;1717988;82;21095;-66
2023/06/15 09:31:31;;;;;;;6.47;3.22;;;;;;;25.25;85.00;99819.80;1721471;82;21635;-65
2023/06/15 09:34:07;;;;;;;8.38;2.72;;;;;;;27.05;90.73;99811.41;1716683;82;21077;-66
2023/06/15 09:36:49;;;;;;;4.80;2.55;;;;;;;29.11;87.47;99819.47;1720278;82;20998;-66
2023/06/15 09:39:19;;;;;;;5.00;2.45;;;;;;;29.88;82.42;99823.30;1739845;81;21045;-66
2023/06/15 09:42:02;;;;;;;3.75;2.85;;;;;;;29.68;77.32;99833.08;1673638;84;20999;-66
2023/06/15 09:44:29;;;;;;;6.53;2.67;;;;;;;29.33;77.13;99825.70;1670698;84;21038;-66
2023/06/15 09:47:01;;;;;;;7.45;3.00;;;;;;;29.12;77.85;99827.84;1674133;84;21064;-65
2023/06/15 09:49:28;;;;;;;3.98;2.85;;;;;;;29.19;77.69;99827.42;1674404;84;21014;-64
2023/06/15 09:51:55;;;;;;;6.00;2.90;;;;;;;29.31;76.81;99818.84;1739700;81;21072;-66
2023/06/15 09:54:23;;;;;;;4.87;3.00;;;;;;;30.41;79.20;99815.59;1745039;82;21020;-65
2023/06/15 09:56:51;;;;;;;6.47;2.77;;;;;;;31.90;77.21;99822.81;1744670;82;21028;-67
2023/06/15 09:59:19;;;;;;;4.95;2.87;;;;;;;32.31;73.27;99819.88;1733454;81;20956;-66
2023/06/15 10:01:48;;;;;;;6.75;2.80;;;;;;;31.25;70.77;99809.06;1737388;82;21631;-66
2023/06/15 10:04:22;;;;;;;4.42;2.62;;;;;;;29.90;68.60;99815.87;1716990;82;21029;-65
2023/06/15 10:06:50;;;;;;;4.62;3.10;;;;;;;28.86;68.46;99813.58;1734896;82;21130;-65
2023/06/15 10:09:28;;;;;;;5.72;3.00;;;;;;;27.65;68.13;99816.88;1734271;81;21048;-64
2023/06/15 10:11:57;;;;;;;3.72;2.80;;;;;;;26.46;67.96;99814.00;1740418;82;21041;-66
2023/06/15 10:14:31;;;;;;;4.15;2.98;;;;;;;25.70;68.27;99811.80;1744220;81;21009;-65
2023/06/15 10:17:03;;;;;;;8.15;3.85;;;;;;;25.37;67.65;99809.11;1743129;81;21083;-64
2023/06/15 10:19:42;;;;;;;5.12;2.83;;;;;;;25.13;66.91;99812.06;1739090;81;21596;-65
2023/06/15 10:22:07;;;;;;;5.25;3.25;;;;;;;24.45;65.43;99816.16;1738445;82;21013;-65
2023/06/15 10:24:34;;;;;;;5.80;2.77;;;;;;;24.04;65.51;99817.25;1733626;81;21643;-65
2023/06/15 10:27:02;;;;;;;5.95;3.20;;;;;;;23.55;65.05;99805.68;1743430;81;21036;-65
2023/06/15 10:29:32;;;;;;;;;;;;;;;23.51;65.22;99804.83;1743950;81;20982;-65
2023/06/15 10:32:08;;;;;;;5.70;3.15;;;;;;;23.39;64.26;99798.41;1744509;82;20173;-66
2023/06/15 10:34:41;;;;;;;5.70;3.05;;;;;;;23.28;64.12;99793.31;1676758;84;21061;-65
2023/06/15 10:37:14;;;;;;;3.70;2.67;;;;;;;23.07;64.41;99790.92;1663254;85;21034;-66
2023/06/15 10:39:52;;;;;;;10.00;3.50;;;;;;;22.95;64.05;99782.80;1675435;84;21046;-65
2023/06/15 10:42:15;;;;;;;4.00;2.77;;;;;;;23.56;65.57;99785.22;1671028;84;21058;-65
2023/06/15 10:44:41;;;;;;;6.93;3.20;;;;;;;24.45;64.30;99777.46;1695232;84;21068;-65
2023/06/15 10:47:12;;;;;;;6.97;3.23;;;;;;;24.75;63.45;99772.90;1695622;84;21892;-66
2023/06/15 10:49:48;;;;;;;6.25;3.20;;;;;;;24.89;64.22;99747.91;1690471;84;21058;-66
2023/06/15 10:52:14;;;;;;;3.98;2.83;;;;;;;26.26;65.27;99760.55;1671335;84;21018;-66
2023/06/15 10:54:41;;;;;;;5.75;2.83;;;;;;;28.37;65.24;99759.62;1676507;84;21068;-67
2023/06/15 10:57:14;;;;;;;8.08;3.27;;;;;;;29.54;63.86;99762.15;1696240;83;21133;-66
2023/06/15 10:59:49;;;;;;;4.47;2.30;;;;;;;30.64;63.52;99757.86;1692600;84;21060;-66
2023/06/15 11:02:31;;;;;;;5.97;2.77;;;;;;;32.16;61.79;99753.12;1702821;83;21576;-67
2023/06/15 11:05:04;;;;;;;4.20;2.67;;;;;;;32.75;60.00;99753.95;1669014;85;21017;-67
2023/06/15 11:07:38;;;;;;;3.55;2.37;;;;;;;33.45;60.26;99752.55;1661488;85;21013;-67
2023/06/15 11:10:17;;;;;;;5.22;2.37;;;;;;;33.31;58.82;99748.30;1673948;84;21021;-68
2023/06/15 11:12:47;;;;;;;2.80;2.27;;;;;;;33.35;58.13;99746.80;1673783;84;21025;-68
2023/06/15 11:15:15;;;;;;;5.25;2.37;;;;;;;34.04;57.80;99748.49;1670946;84;21065;-68
2023/06/15 11:17:59;;;;;;;5.75;2.00;;;;;;;34.89;57.22;99755.77;1672550;84;21567;-68
2023/06/15 11:20:47;;;;;;;4.03;2.05;;;;;;;34.20;54.77;99747.57;1679100;84;21126;-68
2023/06/15 11:23:25;;;;;;;5.85;2.30;;;;;;;32.77;53.87;99750.52;1667148;85;21116;-68
2023/06/15 11:25:54;;;;;;;4.20;2.30;;;;;;;32.27;52.57;99748.41;1704586;82;21092;-66
2023/06/15 11:28:27;;;;;;;3.62;2.20;;;;;;;31.23;51.12;99747.78;1705001;82;21319;-67
2023/06/15 11:30:53;;;;;;;4.20;2.62;;;;;;;30.36;51.16;99749.87;1672469;84;21069;-67
2023/06/15 11:33:36;;;;;;;6.20;2.27;;;;;;;30.16;51.65;99760.52;1704247;82;21069;-67
2023/06/15 11:36:09;;;;;;;4.05;2.15;;;;;;;29.85;49.96;99756.41;1699910;83;21101;-67
2023/06/15 11:38:37;;;;;;;4.00;2.20;;;;;;;29.31;49.90;99748.93;1703754;83;21097;-66
2023/06/15 11:41:06;;;;;;;5.87;2.35;;;;;;;28.99;48.05;99743.03;1695657;84;21488;-67